Aviation Digital Data Service (ADDS)

Output produced by TAFs form (1229 UTC 25 July 2017)
found at http://www.aviationweather.gov/adds/tafs/
 
METAR text: RJOF 251048Z 02005KT 9999 FEW015 BKN030 FEW030CB 29/26 Q1003 RETS RMK 1CU015 7CU030 1CB030 A2965 CB NE-E
Conditions at: RJOF (HOFU (JASDF) , JP) observed 1048 UTC 25 July 2017
Temperature: 29.0°C (84°F)
Dewpoint: 26.0°C (79°F) [RH = 84%]
Pressure (altimeter): 29.62 inches Hg (1003.0 mb)
Winds: from the NNE (20 degrees) at 6 MPH (5 knots; 2.6 m/s)
Visibility: 6 or more miles (10+ km)
Ceiling: 3000 feet AGL
Clouds: few clouds at 1500 feet AGL
broken clouds at 3000 feet AGL
few clouds at 3000 feet AGL
Weather: no significant weather observed at this time